sensor_id;sensor_type;location;lat;lon;timestamp;pressure;altitude;pressure_sealevel;temperature;humidity
63347;BME280;49472;49.880;8.650;2023-04-20T00:01:36;51386.13;;;-142.94;nan
63347;BME280;49472;49.880;8.650;2023-04-20T00:04:01;51415.28;;;-142.94;nan
63347;BME280;49472;49.880;8.650;2023-04-20T00:06:27;51154.88;;;-142.94;nan
63347;BME280;49472;49.880;8.650;2023-04-20T00:08:56;51605.72;;;-142.94;nan
63347;BME280;49472;49.880;8.650;2023-04-20T00:11:21;51755.38;;;-142.94;nan
63347;BME280;49472;49.880;8.650;2023-04-20T00:13:47;51588.22;;;-142.94;nan
63347;BME280;49472;49.880;8.650;2023-04-20T00:16:12;51866.16;;;-142.94;nan
63347;BME280;49472;49.880;8.650;2023-04-20T00:18:37;51312.28;;;-142.94;nan
63347;BME280;49472;49.880;8.650;2023-04-20T00:21:04;50970.31;;;-142.94;nan
63347;BME280;49472;49.880;8.650;2023-04-20T00:23:29;50686.63;;;-142.94;nan
63347;BME280;49472;49.880;8.650;2023-04-20T00:25:54;51022.75;;;-142.94;nan
63347;BME280;49472;49.880;8.650;2023-04-20T00:28:20;51032.47;;;-142.94;nan
63347;BME280;49472;49.880;8.650;2023-04-20T00:30:45;51178.22;;;-142.94;nan
63347;BME280;49472;49.880;8.650;2023-04-20T00:33:10;51096.59;;;-142.94;nan
63347;BME280;49472;49.880;8.650;2023-04-20T00:35:35;51454.16;;;-142.94;nan
63347;BME280;49472;49.880;8.650;2023-04-20T00:38:01;50995.56;;;-142.94;nan
63347;BME280;49472;49.880;8.650;2023-04-20T00:40:26;51185.97;;;-142.94;nan
63347;BME280;49472;49.880;8.650;2023-04-20T00:42:51;51545.47;;;-142.94;nan
63347;BME280;49472;49.880;8.650;2023-04-20T00:45:17;51821.44;;;-142.94;nan
63347;BME280;49472;49.880;8.650;2023-04-20T00:47:42;51601.84;;;-142.94;nan
63347;BME280;49472;49.880;8.650;2023-04-20T00:50:08;51596.00;;;-142.94;nan
63347;BME280;49472;49.880;8.650;2023-04-20T00:52:34;50991.69;;;-142.94;nan
63347;BME280;49472;49.880;8.650;2023-04-20T00:55:00;51578.53;;;-142.94;nan
63347;BME280;49472;49.880;8.650;2023-04-20T00:57:26;51331.72;;;-142.94;nan
63347;BME280;49472;49.880;8.650;2023-04-20T00:59:52;51679.56;;;-142.94;nan
63347;BME280;49472;49.880;8.650;2023-04-20T01:02:17;50634.19;;;-142.94;nan
63347;BME280;49472;49.880;8.650;2023-04-20T01:04:45;51220.97;;;-142.94;nan
63347;BME280;49472;49.880;8.650;2023-04-20T01:07:10;50855.66;;;-142.94;nan
63347;BME280;49472;49.880;8.650;2023-04-20T01:09:39;50622.53;;;-142.94;nan
63347;BME280;49472;49.880;8.650;2023-04-20T01:12:05;51057.75;;;-142.94;nan
63347;BME280;49472;49.880;8.650;2023-04-20T01:14:31;51013.06;;;-142.94;nan
63347;BME280;49472;49.880;8.650;2023-04-20T01:16:56;50220.38;;;-142.94;nan
63347;BME280;49472;49.880;8.650;2023-04-20T01:19:22;50943.09;;;-142.94;nan
63347;BME280;49472;49.880;8.650;2023-04-20T01:21:48;50913.97;;;-142.94;nan
63347;BME280;49472;49.880;8.650;2023-04-20T01:24:13;50692.47;;;-142.94;nan
63347;BME280;49472;49.880;8.650;2023-04-20T01:26:38;50098.00;;;-142.94;nan
63347;BME280;49472;49.880;8.650;2023-04-20T01:29:04;50847.91;;;-142.94;nan
63347;BME280;49472;49.880;8.650;2023-04-20T01:31:30;51032.47;;;-142.94;nan
63347;BME280;49472;49.880;8.650;2023-04-20T01:33:55;51380.31;;;-142.94;nan
63347;BME280;49472;49.880;8.650;2023-04-20T01:36:21;51294.81;;;-142.94;nan
63347;BME280;49472;49.880;8.650;2023-04-20T01:38:46;50991.69;;;-142.94;nan
63347;BME280;49472;49.880;8.650;2023-04-20T01:41:12;51079.13;;;-142.94;nan
63347;BME280;49472;49.880;8.650;2023-04-20T01:43:38;51335.59;;;-142.94;nan
63347;BME280;49472;49.880;8.650;2023-04-20T01:46:04;51104.38;;;-142.94;nan
63347;BME280;49472;49.880;8.650;2023-04-20T01:48:30;51057.75;;;-142.94;nan
63347;BME280;49472;49.880;8.650;2023-04-20T01:50:56;50166.00;;;-142.94;nan
63347;BME280;49472;49.880;8.650;2023-04-20T01:53:21;50476.81;;;-142.94;nan
63347;BME280;49472;49.880;8.650;2023-04-20T01:55:48;49989.22;;;-142.94;nan
63347;BME280;49472;49.880;8.650;2023-04-20T01:58:14;50492.34;;;-142.94;nan
63347;BME280;49472;49.880;8.650;2023-04-20T02:00:39;49971.75;;;-142.94;nan
63347;BME280;49472;49.880;8.650;2023-04-20T02:03:05;49626.00;;;-142.94;nan
63347;BME280;49472;49.880;8.650;2023-04-20T02:05:30;49476.47;;;-142.94;nan
63347;BME280;49472;49.880;8.650;2023-04-20T02:07:55;49686.22;;;-142.94;nan
63347;BME280;49472;49.880;8.650;2023-04-20T02:10:21;48208.47;;;-142.94;nan
63347;BME280;49472;49.880;8.650;2023-04-20T02:12:47;48903.56;;;-142.94;nan
63347;BME280;49472;49.880;8.650;2023-04-20T02:15:13;50554.53;;;-142.94;nan
63347;BME280;49472;49.880;8.650;2023-04-20T02:17:38;50542.88;;;-142.94;nan
63347;BME280;49472;49.880;8.650;2023-04-20T02:20:05;49950.38;;;-142.94;nan
63347;BME280;49472;49.880;8.650;2023-04-20T02:22:31;48837.56;;;-142.94;nan
63347;BME280;49472;49.880;8.650;2023-04-20T02:25:05;49985.34;;;-142.94;nan
63347;BME280;49472;49.880;8.650;2023-04-20T02:27:31;49513.38;;;-142.94;nan
63347;BME280;49472;49.880;8.650;2023-04-20T02:29:58;50146.56;;;-142.94;nan
63347;BME280;49472;49.880;8.650;2023-04-20T02:32:23;50665.25;;;-142.94;nan
63347;BME280;49472;49.880;8.650;2023-04-20T02:34:48;49583.28;;;-142.94;nan
63347;BME280;49472;49.880;8.650;2023-04-20T02:37:14;49352.16;;;-142.94;nan
63347;BME280;49472;49.880;8.650;2023-04-20T02:39:39;49058.94;;;-142.94;nan
63347;BME280;49472;49.880;8.650;2023-04-20T02:42:05;47800.81;;;-142.94;nan
63347;BME280;49472;49.880;8.650;2023-04-20T02:44:30;48435.63;;;-142.94;nan
63347;BME280;49472;49.880;8.650;2023-04-20T02:46:55;48229.84;;;-142.94;nan
63347;BME280;49472;49.880;8.650;2023-04-20T02:49:21;46248.22;;;-142.94;nan
63347;BME280;49472;49.880;8.650;2023-04-20T02:51:46;45596.34;;;-142.94;nan
63347;BME280;49472;49.880;8.650;2023-04-20T02:54:11;46481.06;;;-142.94;nan
63347;BME280;49472;49.880;8.650;2023-04-20T02:56:36;48109.47;;;-142.94;nan
63347;BME280;49472;49.880;8.650;2023-04-20T02:59:02;45251.06;;;-142.94;nan
63347;BME280;49472;49.880;8.650;2023-04-20T03:01:28;47433.94;;;-142.94;nan
63347;BME280;49472;49.880;8.650;2023-04-20T03:03:53;43585.25;;;-142.94;nan
63347;BME280;49472;49.880;8.650;2023-04-20T03:06:18;43943.94;;;-142.94;nan
63347;BME280;49472;49.880;8.650;2023-04-20T03:08:43;40721.00;;;-142.94;nan
63347;BME280;49472;49.880;8.650;2023-04-20T03:11:09;35371.09;;;-142.94;nan
63347;BME280;49472;49.880;8.650;2023-04-20T03:13:34;36113.84;;;-142.94;nan
63347;BME280;49472;49.880;8.650;2023-04-20T03:16:00;41333.19;;;-142.94;nan
63347;BME280;49472;49.880;8.650;2023-04-20T03:18:25;34381.03;;;-142.94;nan
63347;BME280;49472;49.880;8.650;2023-04-20T03:20:51;38676.03;;;-142.94;nan
63347;BME280;49472;49.880;8.650;2023-04-20T03:23:16;41455.25;;;-142.94;nan
63347;BME280;49472;49.880;8.650;2023-04-20T03:25:42;44122.34;;;-142.94;nan
63347;BME280;49472;49.880;8.650;2023-04-20T03:28:07;44229.00;;;-142.94;nan
63347;BME280;49472;49.880;8.650;2023-04-20T03:30:33;39047.75;;;-142.94;nan
63347;BME280;49472;49.880;8.650;2023-04-20T03:32:58;33886.13;;;-142.94;nan
63347;BME280;49472;49.880;8.650;2023-04-20T03:35:23;34381.03;;;-142.94;nan
63347;BME280;49472;49.880;8.650;2023-04-20T03:37:48;37917.25;;;-142.94;nan
63347;BME280;49472;49.880;8.650;2023-04-20T03:40:14;27211.78;;;-142.94;nan
63347;BME280;49472;49.880;8.650;2023-04-20T03:42:40;35618.66;;;-142.94;nan
63347;BME280;49472;49.880;8.650;2023-04-20T03:45:06;39400.16;;;-142.94;nan
63347;BME280;49472;49.880;8.650;2023-04-20T03:47:31;35123.56;;;-142.94;nan
63347;BME280;49472;49.880;8.650;2023-04-20T03:49:57;33391.25;;;-142.94;nan
63347;BME280;49472;49.880;8.650;2023-04-20T03:52:22;33143.88;;;-142.94;nan
63347;BME280;49472;49.880;8.650;2023-04-20T03:54:47;35618.66;;;-142.94;nan
63347;BME280;49472;49.880;8.650;2023-04-20T03:57:13;36609.09;;;-142.94;nan
63347;BME280;49472;49.880;8.650;2023-04-20T03:59:38;33886.13;;;-142.94;nan
63347;BME280;49472;49.880;8.650;2023-04-20T04:02:04;34381.03;;;-142.94;nan
63347;BME280;49472;49.880;8.650;2023-04-20T04:04:30;33638.69;;;-142.94;nan
63347;BME280;49472;49.880;8.650;2023-04-20T04:06:55;30423.69;;;-142.94;nan
63347;BME280;49472;49.880;8.650;2023-04-20T04:09:20;29187.97;;;-142.94;nan
63347;BME280;49472;49.880;8.650;2023-04-20T04:11:46;32649.13;;;-142.94;nan
63347;BME280;49472;49.880;8.650;2023-04-20T04:14:13;28199.72;;;-142.94;nan
63347;BME280;49472;49.880;8.650;2023-04-20T04:16:38;25483.56;;;-142.94;nan
63347;BME280;49472;49.880;8.650;2023-04-20T04:19:04;27705.72;;;-142.94;nan
63347;BME280;49472;49.880;8.650;2023-04-20T04:21:29;28199.72;;;-142.94;nan
63347;BME280;49472;49.880;8.650;2023-04-20T04:23:54;29187.97;;;-142.94;nan
63347;BME280;49472;49.880;8.650;2023-04-20T04:26:20;23016.25;;;-142.94;nan
63347;BME280;49472;49.880;8.650;2023-04-20T04:28:49;24743.19;;;-142.94;nan
63347;BME280;49472;49.880;8.650;2023-04-20T04:31:15;21043.72;;;-142.94;nan
63347;BME280;49472;49.880;8.650;2023-04-20T04:33:42;20550.78;;;-142.94;nan
63347;BME280;49472;49.880;8.650;2023-04-20T04:36:07;15871.41;;;-142.94;nan
63347;BME280;49472;49.880;8.650;2023-04-20T04:38:33;13165.31;;;-142.94;nan
63347;BME280;49472;49.880;8.650;2023-04-20T04:40:58;15625.31;;;-142.94;nan
63347;BME280;49472;49.880;8.650;2023-04-20T04:43:26;7268.81;;;-142.94;nan
63347;BME280;49472;49.880;8.650;2023-04-20T04:45:51;8741.94;;;-142.94;nan
63347;BME280;49472;49.880;8.650;2023-04-20T04:48:17;7023.34;;;-142.94;nan
63347;BME280;49472;49.880;8.650;2023-04-20T04:50:43;9233.13;;;-142.94;nan
63347;BME280;49472;49.880;8.650;2023-04-20T04:53:09;8005.28;;;-142.94;nan
63347;BME280;49472;49.880;8.650;2023-04-20T04:55:34;11936.00;;;-142.94;nan
63347;BME280;49472;49.880;8.650;2023-04-20T04:57:59;6287.09;;;-142.94;nan
63347;BME280;49472;49.880;8.650;2023-04-20T05:00:26;8250.81;;;-142.94;nan
63347;BME280;49472;49.880;8.650;2023-04-20T05:02:51;11444.41;;;-142.94;nan
63347;BME280;49472;49.880;8.650;2023-04-20T05:05:22;10215.75;;;-142.94;nan
63347;BME280;49472;49.880;8.650;2023-04-20T05:07:49;6041.69;;;-142.94;nan
63347;BME280;49472;49.880;8.650;2023-04-20T05:10:14;6041.69;;;-142.94;nan
63347;BME280;49472;49.880;8.650;2023-04-20T05:12:40;9724.41;;;-142.94;nan
63347;BME280;49472;49.880;8.650;2023-04-20T05:15:06;8987.53;;;-142.94;nan
63347;BME280;49472;49.880;8.650;2023-04-20T05:17:31;7023.34;;;-142.94;nan
63347;BME280;49472;49.880;8.650;2023-04-20T05:19:56;3834.03;;;-142.94;nan
63347;BME280;49472;49.880;8.650;2023-04-20T05:22:22;4569.75;;;-142.94;nan
63347;BME280;49472;49.880;8.650;2023-04-20T05:24:47;6777.91;;;-142.94;nan
63347;BME280;49472;49.880;8.650;2023-04-20T05:27:12;7023.34;;;-142.94;nan
63347;BME280;49472;49.880;8.650;2023-04-20T05:29:38;1872.94;;;-142.94;nan
63347;BME280;49472;49.880;8.650;2023-04-20T05:32:03;4079.25;;;-142.94;nan
63347;BME280;49472;49.880;8.650;2023-04-20T05:34:29;-87.03;;;-142.94;nan
63347;BME280;49472;49.880;8.650;2023-04-20T05:36:54;-2780.03;;;-142.94;nan
63347;BME280;49472;49.880;8.650;2023-04-20T05:39:21;-2290.56;;;-142.94;nan
63347;BME280;49472;49.880;8.650;2023-04-20T05:41:46;402.84;;;-142.94;nan
63347;BME280;49472;49.880;8.650;2023-04-20T05:44:12;-331.94;;;-142.94;nan
63347;BME280;49472;49.880;8.650;2023-04-20T05:46:37;-87.03;;;-142.94;nan
63347;BME280;49472;49.880;8.650;2023-04-20T05:49:03;647.81;;;-142.94;nan
63347;BME280;49472;49.880;8.650;2023-04-20T05:51:28;-2045.78;;;-142.94;nan
63347;BME280;49472;49.880;8.650;2023-04-20T05:54:00;-821.69;;;-142.94;nan
63347;BME280;49472;49.880;8.650;2023-04-20T05:56:26;1137.81;;;-142.94;nan
63347;BME280;49472;49.880;8.650;2023-04-20T05:58:53;1627.88;;;-142.94;nan
63347;BME280;49472;49.880;8.650;2023-04-20T06:01:19;157.91;;;-142.94;nan
63347;BME280;49472;49.880;8.650;2023-04-20T06:03:44;-4492.63;;;-142.94;nan
63347;BME280;49472;49.880;8.650;2023-04-20T06:06:10;-4003.41;;;-142.94;nan
63347;BME280;49472;49.880;8.650;2023-04-20T06:08:36;-5959.81;;;-142.94;nan
63347;BME280;49472;49.880;8.650;2023-04-20T06:11:01;-4492.63;;;-142.94;nan
63347;BME280;49472;49.880;8.650;2023-04-20T06:13:27;-2045.78;;;-142.94;nan
63347;BME280;49472;49.880;8.650;2023-04-20T06:15:53;-4981.75;;;-142.94;nan
63347;BME280;49472;49.880;8.650;2023-04-20T06:18:19;-3514.09;;;-142.94;nan
63347;BME280;49472;49.880;8.650;2023-04-20T06:20:45;-4981.75;;;-142.94;nan
63347;BME280;49472;49.880;8.650;2023-04-20T06:23:10;-4248.00;;;-142.94;nan
63347;BME280;49472;49.880;8.650;2023-04-20T06:25:36;-2290.56;;;-142.94;nan
63347;BME280;49472;49.880;8.650;2023-04-20T06:28:03;-2290.56;;;-142.94;nan
63347;BME280;49472;49.880;8.650;2023-04-20T06:30:28;-4737.19;;;-142.94;nan
63347;BME280;49472;49.880;8.650;2023-04-20T06:32:54;-3514.09;;;-142.94;nan
63347;BME280;49472;49.880;8.650;2023-04-20T06:35:20;-2290.56;;;-142.94;nan
63347;BME280;49472;49.880;8.650;2023-04-20T06:37:47;-2535.31;;;-142.94;nan
63347;BME280;49472;49.880;8.650;2023-04-20T06:40:13;-3514.09;;;-142.94;nan
63347;BME280;49472;49.880;8.650;2023-04-20T06:42:38;-4003.41;;;-142.94;nan
63347;BME280;49472;49.880;8.650;2023-04-20T06:45:07;-4248.00;;;-142.94;nan
63347;BME280;49472;49.880;8.650;2023-04-20T06:47:33;-5470.81;;;-142.94;nan
63347;BME280;49472;49.880;8.650;2023-04-20T06:49:59;-6693.19;;;-142.94;nan
63347;BME280;49472;49.880;8.650;2023-04-20T06:52:26;-4737.19;;;-142.94;nan
63347;BME280;49472;49.880;8.650;2023-04-20T06:54:52;-4003.41;;;-142.94;nan
63347;BME280;49472;49.880;8.650;2023-04-20T06:57:17;-4492.63;;;-142.94;nan
63347;BME280;49472;49.880;8.650;2023-04-20T06:59:42;-5715.34;;;-142.94;nan
63347;BME280;49472;49.880;8.650;2023-04-20T07:02:08;-5226.31;;;-142.94;nan
63347;BME280;49472;49.880;8.650;2023-04-20T07:04:33;-5226.31;;;-142.94;nan
63347;BME280;49472;49.880;8.650;2023-04-20T07:06:58;-6693.19;;;-142.94;nan
63347;BME280;49472;49.880;8.650;2023-04-20T07:09:24;-4248.00;;;-142.94;nan
63347;BME280;49472;49.880;8.650;2023-04-20T07:11:51;-3514.09;;;-142.94;nan
63347;BME280;49472;49.880;8.650;2023-04-20T07:14:16;-5226.31;;;-142.94;nan
63347;BME280;49472;49.880;8.650;2023-04-20T07:16:41;-4737.19;;;-142.94;nan
63347;BME280;49472;49.880;8.650;2023-04-20T07:19:07;-3758.75;;;-142.94;nan
63347;BME280;49472;49.880;8.650;2023-04-20T07:21:32;-3024.75;;;-142.94;nan
63347;BME280;49472;49.880;8.650;2023-04-20T07:23:59;-2535.31;;;-142.94;nan
63347;BME280;49472;49.880;8.650;2023-04-20T07:26:25;-3269.44;;;-142.94;nan
63347;BME280;49472;49.880;8.650;2023-04-20T07:28:50;-821.69;;;-142.94;nan
63347;BME280;49472;49.880;8.650;2023-04-20T07:31:16;-2290.56;;;-142.94;nan
63347;BME280;49472;49.880;8.650;2023-04-20T07:33:42;-1311.38;;;-142.94;nan
63347;BME280;49472;49.880;8.650;2023-04-20T07:36:08;-1066.56;;;-142.94;nan
63347;BME280;49472;49.880;8.650;2023-04-20T07:38:33;2363.09;;;-142.94;nan
63347;BME280;49472;49.880;8.650;2023-04-20T07:40:59;2853.34;;;-142.94;nan
63347;BME280;49472;49.880;8.650;2023-04-20T07:43:24;2853.34;;;-142.94;nan
63347;BME280;49472;49.880;8.650;2023-04-20T07:45:49;2853.34;;;-142.94;nan
63347;BME280;49472;49.880;8.650;2023-04-20T07:48:15;3343.66;;;-142.94;nan
63347;BME280;49472;49.880;8.650;2023-04-20T07:50:40;2853.34;;;-142.94;nan
63347;BME280;49472;49.880;8.650;2023-04-20T07:53:05;5060.34;;;-142.94;nan
63347;BME280;49472;49.880;8.650;2023-04-20T07:55:31;6041.69;;;-142.94;nan
63347;BME280;49472;49.880;8.650;2023-04-20T07:57:57;6287.09;;;-142.94;nan
63347;BME280;49472;49.880;8.650;2023-04-20T08:00:23;6532.47;;;-142.94;nan
63347;BME280;49472;49.880;8.650;2023-04-20T08:02:49;7759.78;;;-142.94;nan
63347;BME280;49472;49.880;8.650;2023-04-20T08:05:14;13165.31;;;-142.94;nan
63347;BME280;49472;49.880;8.650;2023-04-20T08:07:40;11936.00;;;-142.94;nan
63347;BME280;49472;49.880;8.650;2023-04-20T08:10:06;12427.69;;;-142.94;nan
63347;BME280;49472;49.880;8.650;2023-04-20T08:12:32;14887.13;;;-142.94;nan
63347;BME280;49472;49.880;8.650;2023-04-20T08:14:58;13411.25;;;-142.94;nan
63347;BME280;49472;49.880;8.650;2023-04-20T08:17:26;13903.13;;;-142.94;nan
63347;BME280;49472;49.880;8.650;2023-04-20T08:19:52;15871.41;;;-142.94;nan
63347;BME280;49472;49.880;8.650;2023-04-20T08:22:17;17594.63;;;-142.94;nan
63347;BME280;49472;49.880;8.650;2023-04-20T08:24:43;16117.53;;;-142.94;nan
63347;BME280;49472;49.880;8.650;2023-04-20T08:27:08;17594.63;;;-142.94;nan
63347;BME280;49472;49.880;8.650;2023-04-20T08:29:34;17594.63;;;-142.94;nan
63347;BME280;49472;49.880;8.650;2023-04-20T08:31:59;15871.41;;;-142.94;nan
63347;BME280;49472;49.880;8.650;2023-04-20T08:34:25;19318.72;;;-142.94;nan
63347;BME280;49472;49.880;8.650;2023-04-20T08:36:50;15871.41;;;-142.94;nan
63347;BME280;49472;49.880;8.650;2023-04-20T08:39:19;18087.13;;;-142.94;nan
63347;BME280;49472;49.880;8.650;2023-04-20T08:41:45;18087.13;;;-142.94;nan
63347;BME280;49472;49.880;8.650;2023-04-20T08:44:12;24249.69;;;-142.94;nan
63347;BME280;49472;49.880;8.650;2023-04-20T08:46:39;23262.91;;;-142.94;nan
63347;BME280;49472;49.880;8.650;2023-04-20T08:49:10;23756.28;;;-142.94;nan
63347;BME280;49472;49.880;8.650;2023-04-20T08:52:17;25977.25;;;-142.94;nan
63347;BME280;49472;49.880;8.650;2023-04-20T08:54:43;30918.09;;;-142.94;nan
63347;BME280;49472;49.880;8.650;2023-04-20T08:57:08;30423.69;;;-142.94;nan
63347;BME280;49472;49.880;8.650;2023-04-20T08:59:35;28693.81;;;-142.94;nan
63347;BME280;49472;49.880;8.650;2023-04-20T09:02:11;30670.88;;;-142.94;nan
63347;BME280;49472;49.880;8.650;2023-04-20T09:04:38;28693.81;;;-142.94;nan
63347;BME280;49472;49.880;8.650;2023-04-20T09:07:04;33391.25;;;-142.94;nan
63347;BME280;49472;49.880;8.650;2023-04-20T09:09:30;40529.22;;;-142.94;nan
63347;BME280;49472;49.880;8.650;2023-04-20T09:12:06;44062.22;;;-142.94;nan
63347;BME280;49472;49.880;8.650;2023-04-20T09:14:44;46548.97;;;-142.94;nan
63347;BME280;49472;49.880;8.650;2023-04-20T09:17:10;46160.91;;;-142.94;nan
63347;BME280;49472;49.880;8.650;2023-04-20T09:19:53;48035.69;;;-142.94;nan
63347;BME280;49472;49.880;8.650;2023-04-20T09:22:33;47835.75;;;-142.94;nan
63347;BME280;49472;49.880;8.650;2023-04-20T09:24:59;48206.53;;;-142.94;nan
63347;BME280;49472;49.880;8.650;2023-04-20T09:27:25;48377.38;;;-142.94;nan
63347;BME280;49472;49.880;8.650;2023-04-20T09:30:01;49204.56;;;-142.94;nan
63347;BME280;49472;49.880;8.650;2023-04-20T09:32:29;49420.13;;;-142.94;nan
63347;BME280;49472;49.880;8.650;2023-04-20T09:34:56;49911.53;;;-142.94;nan
63347;BME280;49472;49.880;8.650;2023-04-20T09:37:22;48989.03;;;-142.94;nan
63347;BME280;49472;49.880;8.650;2023-04-20T09:39:47;49027.84;;;-142.94;nan
63347;BME280;49472;49.880;8.650;2023-04-20T09:42:15;50350.53;;;-142.94;nan
63347;BME280;49472;49.880;8.650;2023-04-20T09:44:42;50678.88;;;-142.94;nan
63347;BME280;49472;49.880;8.650;2023-04-20T09:47:08;50851.78;;;-142.94;nan
63347;BME280;49472;49.880;8.650;2023-04-20T09:49:43;51016.94;;;-142.94;nan
63347;BME280;49472;49.880;8.650;2023-04-20T09:52:10;51131.56;;;-142.94;nan
63347;BME280;49472;49.880;8.650;2023-04-20T09:54:37;51298.69;;;-142.94;nan
63347;BME280;49472;49.880;8.650;2023-04-20T09:57:04;51145.19;;;-142.94;nan
63347;BME280;49472;49.880;8.650;2023-04-20T09:59:32;51151.00;;;-142.94;nan
63347;BME280;49472;49.880;8.650;2023-04-20T10:01:57;51205.41;;;-142.94;nan
63347;BME280;49472;49.880;8.650;2023-04-20T10:04:23;51312.28;;;-142.94;nan
63347;BME280;49472;49.880;8.650;2023-04-20T10:06:53;51322.00;;;-142.94;nan
63347;BME280;49472;49.880;8.650;2023-04-20T10:09:27;51257.88;;;-142.94;nan
63347;BME280;49472;49.880;8.650;2023-04-20T10:12:03;51228.72;;;-142.94;nan
63347;BME280;49472;49.880;8.650;2023-04-20T10:14:29;51191.81;;;-142.94;nan
63347;BME280;49472;49.880;8.650;2023-04-20T10:19:44;51094.66;;;-142.94;nan
63347;BME280;49472;49.880;8.650;2023-04-20T10:22:11;51147.13;;;-142.94;nan
63347;BME280;49472;49.880;8.650;2023-04-20T10:24:37;51092.72;;;-142.94;nan
63347;BME280;49472;49.880;8.650;2023-04-20T10:27:14;51112.16;;;-142.94;nan
63347;BME280;49472;49.880;8.650;2023-04-20T10:29:40;51044.13;;;-142.94;nan
63347;BME280;49472;49.880;8.650;2023-04-20T10:32:06;51283.13;;;-142.94;nan
63347;BME280;49472;49.880;8.650;2023-04-20T10:34:33;51203.47;;;-142.94;nan
63347;BME280;49472;49.880;8.650;2023-04-20T10:37:09;51049.97;;;-142.94;nan
63347;BME280;49472;49.880;8.650;2023-04-20T10:39:35;50892.59;;;-142.94;nan
63347;BME280;49472;49.880;8.650;2023-04-20T10:42:02;50908.13;;;-142.94;nan
63347;BME280;49472;49.880;8.650;2023-04-20T10:44:28;51032.47;;;-142.94;nan
63347;BME280;49472;49.880;8.650;2023-04-20T10:46:54;51063.56;;;-142.94;nan
63347;BME280;49472;49.880;8.650;2023-04-20T10:49:24;51040.25;;;-142.94;nan
63347;BME280;49472;49.880;8.650;2023-04-20T10:51:51;50980.00;;;-142.94;nan
63347;BME280;49472;49.880;8.650;2023-04-20T10:54:17;51145.19;;;-142.94;nan
63347;BME280;49472;49.880;8.650;2023-04-20T10:59:17;51063.56;;;-142.94;nan
63347;BME280;49472;49.880;8.650;2023-04-20T11:01:44;51110.19;;;-142.94;nan
63347;BME280;49472;49.880;8.650;2023-04-20T11:04:10;51075.22;;;-142.94;nan
63347;BME280;49472;49.880;8.650;2023-04-20T11:06:37;51015.00;;;-142.94;nan
63347;BME280;49472;49.880;8.650;2023-04-20T11:09:20;50985.84;;;-142.94;nan
63347;BME280;49472;49.880;8.650;2023-04-20T11:12:06;50933.38;;;-142.94;nan
63347;BME280;49472;49.880;8.650;2023-04-20T11:14:34;51069.41;;;-142.94;nan
63347;BME280;49472;49.880;8.650;2023-04-20T11:17:02;51119.91;;;-142.94;nan
63347;BME280;49472;49.880;8.650;2023-04-20T11:19:31;51108.25;;;-142.94;nan
63347;BME280;49472;49.880;8.650;2023-04-20T11:21:57;50948.94;;;-142.94;nan
63347;BME280;49472;49.880;8.650;2023-04-20T11:24:24;50972.25;;;-142.94;nan
63347;BME280;49472;49.880;8.650;2023-04-20T11:26:51;50723.56;;;-142.94;nan
63347;BME280;49472;49.880;8.650;2023-04-20T11:29:54;50461.28;;;-142.94;nan
63347;BME280;49472;49.880;8.650;2023-04-20T11:32:19;50142.69;;;-142.94;nan
63347;BME280;49472;49.880;8.650;2023-04-20T11:34:45;49892.09;;;-142.94;nan
63347;BME280;49472;49.880;8.650;2023-04-20T11:37:10;49890.16;;;-142.94;nan
63347;BME280;49472;49.880;8.650;2023-04-20T11:39:37;49983.41;;;-142.94;nan
63347;BME280;49472;49.880;8.650;2023-04-20T11:42:04;50051.38;;;-142.94;nan
63347;BME280;49472;49.880;8.650;2023-04-20T11:44:29;49932.91;;;-142.94;nan
63347;BME280;49472;49.880;8.650;2023-04-20T11:46:55;49808.59;;;-142.94;nan
63347;BME280;49472;49.880;8.650;2023-04-20T11:49:24;49682.34;;;-142.94;nan
63347;BME280;49472;49.880;8.650;2023-04-20T11:51:50;49614.34;;;-142.94;nan
63347;BME280;49472;49.880;8.650;2023-04-20T11:54:15;49563.88;;;-142.94;nan
63347;BME280;49472;49.880;8.650;2023-04-20T11:56:43;49690.09;;;-142.94;nan
63347;BME280;49472;49.880;8.650;2023-04-20T11:59:09;49674.56;;;-142.94;nan
63347;BME280;49472;49.880;8.650;2023-04-20T12:01:34;49637.66;;;-142.94;nan
63347;BME280;49472;49.880;8.650;2023-04-20T12:04:01;49610.47;;;-142.94;nan
63347;BME280;49472;49.880;8.650;2023-04-20T12:06:27;49604.66;;;-142.94;nan
63347;BME280;49472;49.880;8.650;2023-04-20T12:08:53;49709.53;;;-142.94;nan
63347;BME280;49472;49.880;8.650;2023-04-20T12:11:19;49670.69;;;-142.94;nan
63347;BME280;49472;49.880;8.650;2023-04-20T12:13:45;49618.25;;;-142.94;nan
63347;BME280;49472;49.880;8.650;2023-04-20T12:16:10;49655.16;;;-142.94;nan
63347;BME280;49472;49.880;8.650;2023-04-20T12:18:35;49657.09;;;-142.94;nan
63347;BME280;49472;49.880;8.650;2023-04-20T12:21:00;49647.38;;;-142.94;nan
63347;BME280;49472;49.880;8.650;2023-04-20T12:23:26;49699.81;;;-142.94;nan
63347;BME280;49472;49.880;8.650;2023-04-20T12:25:51;49645.44;;;-142.94;nan
63347;BME280;49472;49.880;8.650;2023-04-20T12:28:17;49664.84;;;-142.94;nan
63347;BME280;49472;49.880;8.650;2023-04-20T12:30:43;49653.19;;;-142.94;nan
63347;BME280;49472;49.880;8.650;2023-04-20T12:33:08;49542.50;;;-142.94;nan
63347;BME280;49472;49.880;8.650;2023-04-20T12:35:34;49472.56;;;-142.94;nan
63347;BME280;49472;49.880;8.650;2023-04-20T12:37:59;49478.41;;;-142.94;nan
63347;BME280;49472;49.880;8.650;2023-04-20T12:40:25;49427.91;;;-142.94;nan
63347;BME280;49472;49.880;8.650;2023-04-20T12:42:50;49455.09;;;-142.94;nan
63347;BME280;49472;49.880;8.650;2023-04-20T12:45:16;49462.88;;;-142.94;nan
63347;BME280;49472;49.880;8.650;2023-04-20T12:47:41;49453.16;;;-142.94;nan
63347;BME280;49472;49.880;8.650;2023-04-20T12:50:07;49484.22;;;-142.94;nan
63347;BME280;49472;49.880;8.650;2023-04-20T12:54:58;49521.13;;;-142.94;nan
63347;BME280;49472;49.880;8.650;2023-04-20T12:57:24;49559.97;;;-142.94;nan
63347;BME280;49472;49.880;8.650;2023-04-20T12:59:49;49546.38;;;-142.94;nan
63347;BME280;49472;49.880;8.650;2023-04-20T13:02:15;49577.47;;;-142.94;nan
63347;BME280;49472;49.880;8.650;2023-04-20T13:04:41;49624.06;;;-142.94;nan
63347;BME280;49472;49.880;8.650;2023-04-20T13:07:08;49701.75;;;-142.94;nan